^^
Grace C. Lehan Memorial Weather Station Historical Data
Daily Summary for March 1, 2021 Units:  English    Metric   Both
Daily Weekly Monthly Yearly
  High: Low: Average:
Temperature: 62.4 °F 41.8 °F 51.4 °F
Dew Point: 39.9 °F 23 °F 33.4 °F
Humidity: 76.2% 24.2% 52%
Wind Speed: 13mph 0mph 4mph
Wind Gust: 32mph - -
Wind- - NW
Pressure: 29.83 in 29.54 in -
Precipitation: 0.01 in    
 
 
Tabular Data for March 1, 2021
Time Temperature Dew Point Pressure Wind Wind Speed Wind Gust Humidity Rainfall Rate (Hourly) solar
00:00 47.7 °F 34.5 °F 29.54 in North 12 mph 28 mph 60% 0.00 in 0 W/m2
00:09 47.3 °F 35 °F 29.55 in NW 8.5 mph 21 mph 62.3% 0.00 in 0 W/m2
00:14 47 °F 35.9 °F 29.55 in WNW 3.9 mph 21 mph 65.1% 0.00 in 0 W/m2
00:19 46.6 °F 36.3 °F 29.55 in WNW 7.2 mph 21 mph 67.1% 0.00 in 0 W/m2
00:24 46.2 °F 36.8 °F 29.56 in WNW 3.6 mph 21 mph 69.6% 0.00 in 0 W/m2
00:29 45.9 °F 37.5 °F 29.56 in NW 5 mph 21 mph 72.4% 0.01 in 0 W/m2
00:34 45.4 °F 37.9 °F 29.56 in WNW 5.4 mph 21 mph 74.8% 0.01 in 0 W/m2
00:39 44.9 °F 37.7 °F 29.56 in WNW 4.8 mph 16 mph 75.7% 0.01 in 0 W/m2
00:44 44.5 °F 37.5 °F 29.56 in WNW 6.1 mph 16 mph 76.2% 0.01 in 0 W/m2
00:49 44.1 °F 36.6 °F 29.56 in WNW 10.3 mph 31 mph 74.6% 0.01 in 0 W/m2
00:54 44 °F 36 °F 29.57 in WNW 9.2 mph 31 mph 73.2% 0.01 in 0 W/m2
00:59 43.9 °F 35.3 °F 29.57 in WNW 11.1 mph 31 mph 71.4% 0.01 in 0 W/m2
01:04 43.9 °F 34.8 °F 29.57 in WNW 11.2 mph 31 mph 70.2% 0.01 in 0 W/m2
01:09 43.8 °F 34.6 °F 29.57 in WNW 8.3 mph 24 mph 69.8% 0.00 in 0 W/m2
01:14 43.8 °F 34.2 °F 29.57 in WNW 11.1 mph 24 mph 68.8% 0.00 in 0 W/m2
01:19 43.8 °F 34 °F 29.57 in WNW 8.3 mph 24 mph 68.1% 0.00 in 0 W/m2
01:24 43.8 °F 34 °F 29.57 in NW 9.4 mph 24 mph 68% 0.00 in 0 W/m2
01:29 43.8 °F 33.6 °F 29.57 in WNW 9.9 mph 30 mph 67.1% 0.00 in 0 W/m2
01:34 43.7 °F 33.3 °F 29.57 in WNW 12.9 mph 32 mph 66.5% 0.00 in 0 W/m2
01:39 43.7 °F 33.2 °F 29.57 in WNW 6.8 mph 32 mph 66.2% 0.00 in 0 W/m2
01:44 43.6 °F 33.2 °F 29.58 in NW 7.1 mph 32 mph 66.5% 0.00 in 0 W/m2
01:49 43.6 °F 33 °F 29.58 in NW 11.6 mph 32 mph 66% 0.00 in 0 W/m2
01:54 43.5 °F 32.6 °F 29.58 in NW 12.4 mph 32 mph 65.1% 0.00 in 0 W/m2
01:59 43.5 °F 32.5 °F 29.58 in WNW 12.9 mph 32 mph 65% 0.00 in 0 W/m2
02:04 43.4 °F 32.5 °F 29.58 in NW 9.8 mph 32 mph 65% 0.00 in 0 W/m2
02:09 43.4 °F 32.4 °F 29.58 in WNW 9.4 mph 24 mph 65% 0.00 in 0 W/m2
02:14 43.3 °F 32.3 °F 29.58 in NW 10 mph 25 mph 65% 0.00 in 0 W/m2
02:19 43.3 °F 32.3 °F 29.58 in WNW 7.4 mph 25 mph 65% 0.00 in 0 W/m2
02:24 43.2 °F 32.5 °F 29.58 in WNW 8 mph 25 mph 65.7% 0.00 in 0 W/m2
02:29 43.2 °F 32.6 °F 29.59 in WNW 6 mph 25 mph 66% 0.00 in 0 W/m2
02:34 43.1 °F 32.5 °F 29.59 in NW 5.4 mph 25 mph 66% 0.00 in 0 W/m2
02:39 43 °F 32.5 °F 29.59 in NW 3.9 mph 15 mph 66% 0.00 in 0 W/m2
02:44 43 °F 32.7 °F 29.59 in NW 6.4 mph 15 mph 66.7% 0.00 in 0 W/m2
02:49 42.9 °F 32.6 °F 29.59 in NW 9.3 mph 19 mph 66.8% 0.00 in 0 W/m2
02:54 42.8 °F 32.6 °F 29.59 in WNW 7.9 mph 22 mph 67% 0.00 in 0 W/m2
02:59 42.7 °F 32.7 °F 29.59 in NW 5 mph 22 mph 67.5% 0.00 in 0 W/m2
03:04 42.7 °F 32.8 °F 29.59 in NW 5.8 mph 22 mph 68% 0.00 in 0 W/m2
03:09 42.6 °F 32.8 °F 29.60 in NW 6.8 mph 13 mph 68% 0.00 in 0 W/m2
03:14 42.5 °F 32.7 °F 29.60 in WNW 5.5 mph 15 mph 68% 0.00 in 0 W/m2
03:19 42.5 °F 32.8 °F 29.61 in NW 5.6 mph 15 mph 68.4% 0.00 in 0 W/m2
03:24 42.5 °F 33.1 °F 29.61 in NW 4.5 mph 15 mph 69% 0.00 in 0 W/m2
03:29 42.5 °F 33 °F 29.61 in NW 4 mph 15 mph 69% 0.00 in 0 W/m2
03:34 42.4 °F 33 °F 29.61 in NW 7.9 mph 17 mph 69% 0.00 in 0 W/m2
03:39 42.4 °F 33 °F 29.61 in NW 5.3 mph 17 mph 69% 0.00 in 0 W/m2
03:44 42.4 °F 33 °F 29.62 in NW 7.3 mph 17 mph 69% 0.00 in 0 W/m2
03:49 42.4 °F 32.9 °F 29.62 in NNW 7.4 mph 17 mph 68.8% 0.00 in 0 W/m2
03:54 42.4 °F 32.8 °F 29.62 in NW 7 mph 17 mph 68.6% 0.00 in 0 W/m2
03:59 42.4 °F 32.6 °F 29.63 in NW 5.4 mph 17 mph 68% 0.00 in 0 W/m2
04:09 42.4 °F 32.6 °F 29.63 in WNW 4 mph 10 mph 68% 0.00 in 0 W/m2
04:14 42.3 °F 32.8 °F 29.64 in WNW 2.2 mph 10 mph 68.8% 0.00 in 0 W/m2
04:19 42.3 °F 32.5 °F 29.64 in NW 5.3 mph 15 mph 68% 0.00 in 0 W/m2
04:24 42.2 °F 32.4 °F 29.64 in NW 5.3 mph 15 mph 68% 0.00 in 0 W/m2
04:29 42.2 °F 32.4 °F 29.64 in NW 5.2 mph 15 mph 68% 0.00 in 0 W/m2
04:34 42.2 °F 32.4 °F 29.65 in NW 4.1 mph 15 mph 68% 0.00 in 0 W/m2
04:39 42.2 °F 32.4 °F 29.65 in NW 4.3 mph 12 mph 68% 0.00 in 0 W/m2
04:44 42.2 °F 32.4 °F 29.65 in NW 3.4 mph 12 mph 68% 0.00 in 0 W/m2
04:49 42.1 °F 32.3 °F 29.65 in NW 4.9 mph 15 mph 68% 0.00 in 0 W/m2
04:54 42.1 °F 32.3 °F 29.66 in WNW 5.8 mph 15 mph 68% 0.00 in 0 W/m2
04:59 42 °F 32.2 °F 29.66 in NW 4.6 mph 15 mph 68% 0.00 in 0 W/m2
05:04 42 °F 32.2 °F 29.66 in NW 6.5 mph 20 mph 68% 0.00 in 0 W/m2
05:09 42 °F 32.2 °F 29.67 in NW 7.1 mph 20 mph 68% 0.00 in 0 W/m2
05:14 42 °F 32.2 °F 29.67 in NW 6.7 mph 20 mph 68% 0.00 in 0 W/m2
05:19 42 °F 32.2 °F 29.68 in WNW 5.7 mph 20 mph 68% 0.00 in 0 W/m2
05:24 41.9 °F 32.2 °F 29.68 in NW 4.3 mph 20 mph 68% 0.00 in 0 W/m2
05:29 41.9 °F 32.1 °F 29.69 in NW 3.7 mph 20 mph 68% 0.00 in 0 W/m2
05:34 41.8 °F 32 °F 29.69 in NW 2.4 mph 20 mph 68% 0.00 in 0 W/m2
05:39 41.8 °F 32.2 °F 29.70 in NW 3.2 mph 14 mph 68.6% 0.00 in 0 W/m2
05:44 41.8 °F 32.3 °F 29.70 in NW 2.8 mph 14 mph 68.6% 0.00 in 0 W/m2
05:49 41.9 °F 32.2 °F 29.70 in NW 2.2 mph 14 mph 68.3% 0.00 in 0 W/m2
05:54 41.9 °F 32.4 °F 29.71 in NW 7.7 mph 22 mph 68.7% 0.00 in 5 W/m2
05:59 42 °F 32.2 °F 29.71 in NW 5 mph 22 mph 68% 0.00 in 7 W/m2
06:04 42.1 °F 32.3 °F 29.71 in NNW 2.9 mph 22 mph 68% 0.00 in 11 W/m2
06:09 42.1 °F 32.3 °F 29.71 in NW 4.2 mph 15 mph 68% 0.00 in 14 W/m2
06:14 42.1 °F 32.3 °F 29.72 in NW 1.3 mph 15 mph 68% 0.00 in 25 W/m2
06:19 42.1 °F 32.3 °F 29.72 in NW 2.1 mph 15 mph 68% 0.00 in 37 W/m2
06:24 42.1 °F 32.4 °F 29.72 in NW 2.7 mph 15 mph 68.2% 0.00 in 49 W/m2
06:29 42.2 °F 32.4 °F 29.73 in NW 2 mph 15 mph 68% 0.00 in 54 W/m2
06:34 42.3 °F 32.7 °F 29.73 in NW 1.3 mph 15 mph 68.6% 0.00 in 83 W/m2
06:39 42.4 °F 32.7 °F 29.74 in NW 3.7 mph 17 mph 68.2% 0.00 in 104 W/m2
06:44 42.6 °F 32.8 °F 29.74 in NW 4.3 mph 19 mph 68% 0.00 in 148 W/m2
06:49 43 °F 33 °F 29.74 in NNW 3.4 mph 19 mph 67.6% 0.00 in 213 W/m2
06:54 43.5 °F 33.3 °F 29.75 in NNW 1.8 mph 19 mph 67.2% 0.00 in 276 W/m2
06:59 44.2 °F 33.9 °F 29.75 in NW 1 mph 19 mph 66.8% 0.00 in 301 W/m2
07:04 45.2 °F 34.5 °F 29.75 in North 0.4 mph 19 mph 65.9% 0.00 in 287 W/m2
07:09 46 °F 34.6 °F 29.75 in WNW 1.8 mph 9 mph 64.1% 0.00 in 264 W/m2
07:14 46.7 °F 34.6 °F 29.75 in NW 1.9 mph 12 mph 62.5% 0.00 in 313 W/m2
07:19 47.3 °F 34.8 °F 29.76 in NW 3.1 mph 13 mph 61.7% 0.00 in 334 W/m2
07:24 47.8 °F 34.9 °F 29.76 in NW 1.3 mph 13 mph 60.8% 0.00 in 327 W/m2
07:29 48.2 °F 35.4 °F 29.76 in NNW 0.5 mph 13 mph 61.2% 0.00 in 359 W/m2
07:34 48.3 °F 35.1 °F 29.76 in WNW 4 mph 14 mph 60% 0.00 in 415 W/m2
07:39 48.3 °F 35 °F 29.76 in West 0.5 mph 14 mph 59.8% 0.00 in 425 W/m2
07:44 48.2 °F 34.8 °F 29.76 in WNW 0.5 mph 14 mph 59.4% 0.00 in 116 W/m2
07:49 47.7 °F 34.3 °F 29.77 in NW 4.2 mph 14 mph 59.5% 0.00 in 70 W/m2
07:54 46.9 °F 33.9 °F 29.77 in NNW 1.8 mph 14 mph 60.4% 0.00 in 83 W/m2
07:59 46.4 °F 34.4 °F 29.78 in NNW 1 mph 14 mph 62.7% 0.00 in 83 W/m2
08:00 46.3 °F 34.4 °F 29.77 in WNW 8 mph 14 mph 63% 0.00 in 54 W/m2
08:09 46.3 °F 34.7 °F 29.77 in WNW 2 mph 9 mph 63.7% 0.00 in 461 W/m2
08:14 46.9 °F 35.4 °F 29.77 in NW 1.2 mph 9 mph 64% 0.00 in 483 W/m2
08:19 47.8 °F 35.5 °F 29.77 in NW 4.5 mph 13 mph 62% 0.00 in 483 W/m2
08:24 48.6 °F 35.6 °F 29.77 in WNW 4.4 mph 14 mph 60.7% 0.00 in 515 W/m2
08:29 49.3 °F 36.4 °F 29.78 in NW 4.9 mph 18 mph 61% 0.00 in 529 W/m2
08:34 49.9 °F 36.2 °F 29.77 in NW 2.6 mph 18 mph 59.2% 0.00 in 527 W/m2
08:39 50.4 °F 36.5 °F 29.78 in NW 3.5 mph 16 mph 58.8% 0.00 in 541 W/m2
08:44 50.9 °F 37.1 °F 29.78 in NW 3.1 mph 16 mph 58.9% 0.00 in 557 W/m2
08:49 51.5 °F 37 °F 29.78 in WNW 5.2 mph 16 mph 57.5% 0.00 in 575 W/m2
08:54 51.3 °F 36 °F 29.78 in NW 8.3 mph 20 mph 55.6% 0.00 in 592 W/m2
08:59 50.9 °F 36.3 °F 29.79 in NW 5.4 mph 20 mph 57.2% 0.00 in 605 W/m2
09:04 50.9 °F 36.5 °F 29.79 in WNW 7.7 mph 20 mph 57.5% 0.00 in 622 W/m2
09:09 50.8 °F 36.4 °F 29.79 in NW 5.9 mph 18 mph 57.7% 0.00 in 642 W/m2
09:14 50.9 °F 36.4 °F 29.79 in WNW 8.1 mph 19 mph 57.3% 0.00 in 668 W/m2
09:19 51 °F 37.3 °F 29.79 in NW 6 mph 19 mph 59.2% 0.00 in 679 W/m2
09:24 51.4 °F 37 °F 29.79 in NW 4.9 mph 19 mph 57.6% 0.00 in 686 W/m2
09:29 51.7 °F 37.5 °F 29.79 in NW 2.3 mph 19 mph 58.1% 0.00 in 712 W/m2
09:34 52.2 °F 37.9 °F 29.79 in WNW 4.6 mph 19 mph 58.1% 0.00 in 773 W/m2
09:39 52.5 °F 37.8 °F 29.80 in WNW 3.5 mph 17 mph 57.1% 0.00 in 773 W/m2
09:44 52.3 °F 37.1 °F 29.80 in WNW 6 mph 17 mph 56% 0.00 in 828 W/m2
09:49 52 °F 37.1 °F 29.80 in WNW 4.7 mph 17 mph 56.6% 0.00 in 798 W/m2
09:54 52 °F 37.7 °F 29.81 in NW 6.7 mph 19 mph 58.1% 0.00 in 798 W/m2
09:59 52.4 °F 38.1 °F 29.81 in NW 5.4 mph 19 mph 57.9% 0.00 in 784 W/m2
10:04 53 °F 38.1 °F 29.81 in NW 6.3 mph 19 mph 56.8% 0.00 in 789 W/m2
10:09 53 °F 37.3 °F 29.81 in NW 8.5 mph 19 mph 55.2% 0.00 in 796 W/m2
10:14 52.7 °F 37.7 °F 29.81 in NW 6.4 mph 19 mph 56.4% 0.00 in 814 W/m2
10:19 52.9 °F 38.1 °F 29.81 in WNW 2.8 mph 19 mph 57.1% 0.00 in 823 W/m2
10:24 53.2 °F 37.8 °F 29.81 in WNW 7.2 mph 19 mph 55.8% 0.00 in 831 W/m2
10:29 53.1 °F 37.9 °F 29.81 in NW 6.4 mph 19 mph 56.2% 0.00 in 842 W/m2
10:34 53.2 °F 37.7 °F 29.81 in WNW 7.3 mph 19 mph 55.4% 0.00 in 854 W/m2
10:39 53.2 °F 38 °F 29.81 in WNW 4.7 mph 17 mph 56% 0.00 in 860 W/m2
10:44 53.5 °F 37.8 °F 29.82 in WNW 7.8 mph 17 mph 55.2% 0.00 in 868 W/m2
10:49 53.3 °F 37.4 °F 29.82 in WNW 7.4 mph 17 mph 54.6% 0.00 in 877 W/m2
10:54 53.5 °F 38.3 °F 29.82 in NW 3.9 mph 17 mph 56.2% 0.00 in 888 W/m2
10:59 54.1 °F 38 °F 29.82 in NW 9.1 mph 19 mph 54.3% 0.00 in 896 W/m2
11:04 54 °F 37.5 °F 29.82 in WNW 7 mph 19 mph 53.6% 0.00 in 904 W/m2
11:08 53.8 °F 38.3 °F 29.82 in NW 5.4 mph 17 mph 55.5% 0.00 in 911 W/m2
11:30 54.2 °F 37.5 °F 29.82 in NW 6 mph 19 mph 53% 0.00 in 920 W/m2
12:04 55.2 °F 37.6 °F 29.83 in NW 6.6 mph 19 mph 51.5% 0.00 in 974 W/m2
12:09 55.3 °F 38.3 °F 29.83 in WNW 2.6 mph 12 mph 52.6% 0.00 in 976 W/m2
12:14 55.5 °F 39.7 °F 29.83 in WNW 4.3 mph 16 mph 55.1% 0.00 in 979 W/m2
12:19 55.7 °F 38.5 °F 29.83 in West 3.2 mph 16 mph 52.4% 0.00 in 986 W/m2
12:24 55.5 °F 37.9 °F 29.83 in WNW 6.7 mph 17 mph 51.5% 0.00 in 986 W/m2
12:29 55 °F 38.1 °F 29.83 in NW 5.1 mph 17 mph 52.8% 0.00 in 990 W/m2
12:34 55 °F 38.5 °F 29.83 in NW 5.5 mph 19 mph 53.6% 0.00 in 993 W/m2
12:39 55.2 °F 38.7 °F 29.83 in NW 3.6 mph 19 mph 53.6% 0.00 in 995 W/m2
12:44 55.7 °F 38.7 °F 29.83 in WNW 4.8 mph 19 mph 52.7% 0.00 in 997 W/m2
12:49 55.8 °F 38.8 °F 29.83 in NW 4.6 mph 19 mph 52.7% 0.00 in 997 W/m2
12:54 56 °F 38.7 °F 29.83 in NW 2.8 mph 19 mph 52.2% 0.00 in 1000 W/m2
12:59 56.5 °F 39.9 °F 29.83 in NW 4.9 mph 19 mph 53.7% 0.00 in 1002 W/m2
13:04 57 °F 39 °F 29.83 in NW 7.6 mph 19 mph 50.9% 0.00 in 1004 W/m2
13:09 56.9 °F 38.8 °F 29.83 in NW 6.8 mph 19 mph 50.7% 0.00 in 1004 W/m2
13:14 56.9 °F 38.8 °F 29.83 in NW 4.4 mph 19 mph 50.7% 0.00 in 1000 W/m2
13:19 57 °F 39.1 °F 29.83 in WNW 5.9 mph 19 mph 51.1% 0.00 in 1000 W/m2
13:24 57.2 °F 39.1 °F 29.83 in NW 5.4 mph 19 mph 50.6% 0.00 in 1002 W/m2
13:29 57.4 °F 38.8 °F 29.83 in WNW 6.8 mph 22 mph 49.6% 0.00 in 1002 W/m2
13:34 57.5 °F 38.7 °F 29.83 in WNW 5.8 mph 22 mph 49.5% 0.00 in 997 W/m2
13:39 57.6 °F 39 °F 29.83 in NW 7.6 mph 18 mph 49.8% 0.00 in 993 W/m2
13:44 57.6 °F 38.7 °F 29.83 in NW 6.3 mph 18 mph 49.1% 0.00 in 988 W/m2
13:49 57.8 °F 39.3 °F 29.83 in NW 5.8 mph 19 mph 50% 0.00 in 986 W/m2
13:54 58 °F 38.9 °F 29.83 in WNW 3.9 mph 19 mph 48.8% 0.00 in 981 W/m2
13:59 58.3 °F 39.7 °F 29.83 in WNW 7.3 mph 19 mph 49.9% 0.00 in 976 W/m2
14:04 58.6 °F 39 °F 29.83 in NW 7.2 mph 19 mph 48% 0.00 in 970 W/m2
14:09 58.7 °F 39 °F 29.83 in NW 5.9 mph 17 mph 47.8% 0.00 in 963 W/m2
14:14 58.9 °F 39.4 °F 29.83 in NW 6 mph 17 mph 48.2% 0.00 in 960 W/m2
14:19 59.1 °F 38.6 °F 29.82 in WNW 5.5 mph 17 mph 46.5% 0.00 in 958 W/m2
14:24 59.1 °F 39.1 °F 29.82 in NW 4.2 mph 17 mph 47.3% 0.00 in 951 W/m2
14:29 59.3 °F 38.7 °F 29.83 in NW 10.1 mph 20 mph 46.3% 0.00 in 942 W/m2
14:34 59 °F 38.2 °F 29.83 in NW 8.3 mph 20 mph 45.8% 0.00 in 935 W/m2
14:39 59.2 °F 39 °F 29.83 in NW 4.8 mph 18 mph 47% 0.00 in 928 W/m2
14:44 59.6 °F 38 °F 29.83 in NW 6.8 mph 18 mph 44.6% 0.00 in 918 W/m2
14:49 59.8 °F 37.8 °F 29.83 in NW 9 mph 19 mph 44% 0.00 in 912 W/m2
14:54 59.7 °F 37.1 °F 29.83 in WNW 6.5 mph 20 mph 42.9% 0.00 in 907 W/m2
14:59 59.8 °F 36.8 °F 29.83 in WNW 5.9 mph 21 mph 42.2% 0.00 in 896 W/m2
15:04 60.1 °F 35.4 °F 29.83 in WNW 7.5 mph 21 mph 39.6% 0.00 in 888 W/m2
15:09 60.3 °F 35.2 °F 29.83 in NW 5.3 mph 19 mph 39% 0.00 in 874 W/m2
15:14 60.6 °F 35.3 °F 29.83 in NW 4 mph 19 mph 38.8% 0.00 in 858 W/m2
15:19 60.9 °F 35.5 °F 29.83 in NNW 4.6 mph 19 mph 38.5% 0.00 in 847 W/m2
15:24 61.4 °F 36.2 °F 29.82 in NW 4.2 mph 19 mph 39% 0.00 in 837 W/m2
15:29 61.7 °F 35.1 °F 29.83 in NW 3.1 mph 19 mph 37% 0.00 in 826 W/m2
15:34 61.9 °F 34.8 °F 29.82 in NNW 1.6 mph 19 mph 36.2% 0.00 in 812 W/m2
15:39 62.1 °F 35.7 °F 29.82 in NW 2.3 mph 7 mph 37.2% 0.00 in 802 W/m2
15:44 62.3 °F 35.9 °F 29.82 in WNW 3.2 mph 10 mph 37.3% 0.00 in 780 W/m2
15:49 62.4 °F 34.2 °F 29.82 in WNW 4.6 mph 11 mph 34.8% 0.00 in 777 W/m2
15:54 62.3 °F 32.9 °F 29.82 in WNW 5.9 mph 17 mph 33% 0.00 in 763 W/m2
15:59 62.3 °F 33 °F 29.82 in WNW 6.6 mph 17 mph 33.2% 0.00 in 749 W/m2
16:04 61.8 °F 33.2 °F 29.82 in West 13 mph 13 mph 34% 0.00 in 51 W/m2
16:09 61.7 °F 32.7 °F 29.82 in WNW 6.1 mph 13 mph 33.5% 0.00 in 51 W/m2
16:14 61.6 °F 33.2 °F 29.82 in WNW 3.2 mph 13 mph 34.3% 0.00 in 49 W/m2
16:19 61.4 °F 33.8 °F 29.82 in WNW 1.4 mph 13 mph 35.3% 0.00 in 49 W/m2
16:24 61.4 °F 33.5 °F 29.82 in West 2.7 mph 13 mph 34.9% 0.00 in 47 W/m2
16:29 61.4 °F 32.8 °F 29.82 in WNW 1.3 mph 13 mph 34% 0.00 in 46 W/m2
16:34 61.3 °F 32.3 °F 29.81 in NW 3.3 mph 14 mph 33.4% 0.00 in 46 W/m2
16:39 61.2 °F 28.7 °F 29.81 in NW 6.1 mph 14 mph 29% 0.00 in 44 W/m2
16:44 61.2 °F 28.8 °F 29.81 in WNW 2.1 mph 14 mph 29.1% 0.00 in 44 W/m2
16:49 61.4 °F 28.2 °F 29.81 in NW 4.5 mph 15 mph 28.3% 0.00 in 44 W/m2
16:54 61.4 °F 27.9 °F 29.81 in NW 3.7 mph 15 mph 27.9% 0.00 in 46 W/m2
16:59 61.2 °F 27.8 °F 29.81 in NNW 2.4 mph 15 mph 28% 0.00 in 44 W/m2
17:04 61.1 °F 29.7 °F 29.81 in NW 1.7 mph 15 mph 30.4% 0.00 in 44 W/m2
17:09 61.1 °F 29.9 °F 29.81 in WNW 2.8 mph 11 mph 30.5% 0.00 in 70 W/m2
17:14 61.3 °F 28.7 °F 29.81 in NW 5.4 mph 15 mph 28.9% 0.00 in 72 W/m2
17:19 61.4 °F 27.5 °F 29.81 in WNW 4.9 mph 15 mph 27.5% 0.00 in 74 W/m2
17:24 61.3 °F 27.9 °F 29.82 in WNW 3.8 mph 15 mph 28% 0.00 in 72 W/m2
17:29 61.3 °F 27.9 °F 29.81 in WNW 3.5 mph 15 mph 27.9% 0.00 in 76 W/m2
17:34 61.2 °F 27.8 °F 29.82 in WNW 1 mph 15 mph 27.9% 0.00 in 81 W/m2
17:39 61.1 °F 27.8 °F 29.81 in WNW 1.9 mph 10 mph 28% 0.00 in 76 W/m2
17:44 61 °F 27.2 °F 29.81 in NW 3.3 mph 11 mph 27.4% 0.00 in 65 W/m2
17:49 60.8 °F 26 °F 29.81 in WNW 2.3 mph 12 mph 26.3% 0.00 in 65 W/m2
17:54 60.8 °F 26.6 °F 29.81 in West 3.9 mph 14 mph 27% 0.00 in 47 W/m2
17:59 60.8 °F 26.6 °F 29.81 in WNW 0.7 mph 14 mph 27% 0.00 in 44 W/m2
18:04 60.8 °F 27.2 °F 29.81 in WNW 1.4 mph 14 mph 27.7% 0.00 in 40 W/m2
18:09 60.6 °F 25.2 °F 29.81 in WNW 4.7 mph 14 mph 25.7% 0.00 in 53 W/m2
18:14 60.1 °F 23.4 °F 29.81 in WNW 4.6 mph 14 mph 24.2% 0.00 in 53 W/m2
18:19 59.7 °F 23 °F 29.81 in NNW 3.3 mph 14 mph 24.2% 0.00 in 42 W/m2
18:24 59.3 °F 23.3 °F 29.81 in NW 1.3 mph 14 mph 24.7% 0.00 in 47 W/m2
18:29 59.1 °F 23.8 °F 29.81 in NW 0.4 mph 14 mph 25.5% 0.00 in 62 W/m2
18:34 58.9 °F 24.2 °F 29.81 in NW 0.2 mph 14 mph 26.2% 0.00 in 69 W/m2
18:39 58.7 °F 25.2 °F 29.80 in North 0.6 mph 3 mph 27.4% 0.00 in 70 W/m2
18:44 58.6 °F 25.1 °F 29.81 in North 0.6 mph 4 mph 27.4% 0.00 in 74 W/m2
18:49 58.6 °F 25.3 °F 29.81 in North 0.4 mph 4 mph 27.7% 0.00 in 65 W/m2
18:54 58.7 °F 26.1 °F 29.81 in North 0.4 mph 4 mph 28.5% 0.00 in 56 W/m2
18:59 58.7 °F 25.8 °F 29.80 in North 0.3 mph 4 mph 28% 0.00 in 51 W/m2
19:04 58.8 °F 25.4 °F 29.80 in Calm   4 mph 27.5% 0.00 in 37 W/m2
19:09 58.9 °F 26.6 °F 29.81 in NNW 0.3 mph 3 mph 28.8% 0.00 in 30 W/m2
19:14 58.9 °F 26.3 °F 29.81 in NNW 0.3 mph 3 mph 28.6% 0.00 in 21 W/m2
19:19 58.8 °F 26.4 °F 29.81 in Calm   3 mph 28.7% 0.00 in 19 W/m2
19:24 58.7 °F 27.3 °F 29.81 in Calm   3 mph 29.9% 0.00 in 18 W/m2
19:29 58.6 °F 28.3 °F 29.81 in NNW 0.1 mph 3 mph 31.2% 0.00 in 14 W/m2
19:34 58.5 °F 27.4 °F 29.81 in Calm   3 mph 30.3% 0.00 in 12 W/m2
19:39 58.3 °F 28 °F 29.81 in Calm   1 mph 31.3% 0.00 in 7 W/m2
19:44 58.1 °F 28.4 °F 29.81 in Calm   1 mph 32% 0.00 in 5 W/m2
19:49 57.8 °F 28.6 °F 29.81 in Calm   1 mph 32.5% 0.00 in 0 W/m2
19:54 57.5 °F 28.7 °F 29.80 in Calm   1 mph 33.1% 0.00 in 0 W/m2
19:59 57.1 °F 27.1 °F 29.80 in Calm   1 mph 31.4% 0.00 in 0 W/m2
20:00 56.9 °F 26.6 °F 29.80 in Calm   1 mph 31% 0.00 in 0 W/m2
20:09 56.4 °F 27.3 °F 29.80 in Calm     32.5% 0.00 in 0 W/m2
20:14 56.1 °F 28.1 °F 29.81 in Calm     34% 0.00 in 0 W/m2
20:19 55.7 °F 27.8 °F 29.80 in Calm     34% 0.00 in 0 W/m2
20:24 55.4 °F 27.2 °F 29.81 in Calm     33.6% 0.00 in 0 W/m2
20:29 55.1 °F 27.5 °F 29.81 in Calm     34.4% 0.00 in 0 W/m2
20:34 54.7 °F 28.6 °F 29.80 in Calm     36.4% 0.00 in 0 W/m2
20:39 54.4 °F 29.7 °F 29.80 in Calm     38.7% 0.00 in 0 W/m2
20:44 54 °F 29.5 °F 29.81 in Calm     38.9% 0.00 in 0 W/m2
20:49 53.5 °F 29.2 °F 29.81 in Calm     39% 0.00 in 0 W/m2
20:54 53.1 °F 29.4 °F 29.81 in Calm     39.9% 0.00 in 0 W/m2
20:59 52.8 °F 29.8 °F 29.81 in Calm     41.1% 0.00 in 0 W/m2
21:04 52.5 °F 30 °F 29.81 in Calm     41.8% 0.00 in 0 W/m2
21:09 52.3 °F 30.4 °F 29.81 in Calm     42.8% 0.00 in 0 W/m2
21:14 52 °F 31.4 °F 29.81 in Calm     45.1% 0.00 in 0 W/m2
21:19 51.6 °F 32.7 °F 29.81 in Calm     48.2% 0.00 in 0 W/m2
21:24 51.2 °F 32.7 °F 29.81 in Calm     48.9% 0.00 in 0 W/m2
21:29 51 °F 32 °F 29.81 in Calm     48.1% 0.00 in 0 W/m2
21:34 50.8 °F 30.8 °F 29.81 in Calm     46.1% 0.00 in 0 W/m2
21:39 50.6 °F 30.6 °F 29.81 in Calm     46% 0.00 in 0 W/m2
21:44 50.5 °F 30.2 °F 29.81 in Calm     45.5% 0.00 in 0 W/m2
21:49 50.3 °F 30.8 °F 29.81 in Calm     46.8% 0.00 in 0 W/m2
21:54 50.2 °F 31.5 °F 29.81 in Calm     48.4% 0.00 in 0 W/m2
21:59 50 °F 31.3 °F 29.81 in Calm     48.3% 0.00 in 0 W/m2
22:04 49.9 °F 31.8 °F 29.81 in Calm     49.5% 0.00 in 0 W/m2
22:09 49.8 °F 31.9 °F 29.81 in Calm     50.1% 0.00 in 0 W/m2
22:14 49.6 °F 31.9 °F 29.81 in Calm     50.3% 0.00 in 0 W/m2
22:19 49.5 °F 32.5 °F 29.81 in Calm     51.8% 0.00 in 0 W/m2
22:24 49.3 °F 31.8 °F 29.81 in Calm     50.6% 0.00 in 0 W/m2
22:29 49.2 °F 32.4 °F 29.80 in Calm     52.1% 0.00 in 0 W/m2
22:34 49.2 °F 32.6 °F 29.80 in Calm     52.5% 0.00 in 0 W/m2
22:39 49 °F 33.7 °F 29.80 in Calm     55.3% 0.00 in 0 W/m2
22:44 48.8 °F 33.8 °F 29.80 in Calm     56% 0.00 in 0 W/m2
22:49 48.7 °F 33.9 °F 29.80 in Calm     56.4% 0.00 in 0 W/m2
22:54 48.5 °F 33.8 °F 29.80 in Calm     56.7% 0.00 in 0 W/m2
22:59 48.3 °F 33.3 °F 29.80 in Calm     55.9% 0.00 in 0 W/m2
23:04 48.2 °F 33.1 °F 29.80 in Calm     55.6% 0.00 in 0 W/m2
23:09 48.3 °F 32.4 °F 29.80 in Calm     54% 0.00 in 0 W/m2
23:14 48.3 °F 32.6 °F 29.80 in Calm     54.4% 0.00 in 0 W/m2
23:19 48.3 °F 34 °F 29.80 in Calm     57.5% 0.00 in 0 W/m2
23:24 48.2 °F 34.8 °F 29.79 in Calm     59.5% 0.00 in 0 W/m2
23:29 48 °F 34.8 °F 29.79 in Calm     60% 0.00 in 0 W/m2
23:34 47.9 °F 34.7 °F 29.79 in Calm     60% 0.00 in 0 W/m2
23:39 47.9 °F 34.5 °F 29.79 in Calm     59.6% 0.00 in 0 W/m2
23:44 48.1 °F 34.8 °F 29.79 in Calm     59.9% 0.00 in 0 W/m2
23:49 48.3 °F 33.8 °F 29.79 in Calm     57.1% 0.00 in 0 W/m2
23:54 48.7 °F 33.3 °F 29.79 in Calm     55.1% 0.00 in 0 W/m2
23:59 49.1 °F 33.2 °F 29.78 in Calm     54.1% 0.00 in 0 W/m2
Hartford County Weather
Compliments of Weather Underground - 2 mb